createdAt,value
2023-05-07T00:01:56.950Z,46.91
2023-05-07T00:04:27.578Z,46.93
2023-05-07T00:06:57.884Z,46.90
2023-05-07T00:09:28.346Z,46.86
2023-05-07T00:11:58.477Z,46.81
2023-05-07T00:14:28.687Z,46.83
2023-05-07T00:16:58.737Z,46.82
2023-05-07T00:19:29.206Z,46.81
2023-05-07T00:21:59.434Z,46.76
2023-05-07T00:24:29.516Z,46.76
2023-05-07T00:26:59.700Z,46.73
2023-05-07T00:29:29.746Z,46.70
2023-05-07T00:31:59.884Z,46.65
2023-05-07T00:34:30.012Z,46.68
2023-05-07T00:37:00.147Z,46.65
2023-05-07T00:39:30.395Z,46.60
2023-05-07T00:42:01.631Z,46.58
2023-05-07T00:44:31.981Z,46.57
2023-05-07T00:47:04.864Z,46.52
2023-05-07T00:49:43.014Z,46.50
2023-05-07T00:52:18.014Z,46.48
2023-05-07T00:54:48.182Z,46.42
2023-05-07T00:57:18.815Z,46.38
2023-05-07T00:59:49.154Z,46.38
2023-05-07T01:02:19.532Z,46.39
2023-05-07T01:04:49.799Z,46.34
2023-05-07T01:07:20.925Z,46.29
2023-05-07T01:09:51.436Z,46.28
2023-05-07T01:12:22.331Z,46.23
2023-05-07T01:14:52.542Z,46.19
2023-05-07T01:17:22.985Z,46.16
2023-05-07T01:19:54.456Z,46.12
2023-05-07T01:22:37.771Z,46.08
2023-05-07T01:25:09.399Z,46.05
2023-05-07T01:27:39.414Z,45.94
2023-05-07T01:30:10.662Z,45.92
2023-05-07T01:32:46.831Z,45.94
2023-05-07T01:35:23.520Z,45.89
2023-05-07T01:37:54.656Z,45.80
2023-05-07T01:40:26.281Z,45.77
2023-05-07T01:42:57.146Z,45.73
2023-05-07T01:45:27.900Z,45.69
2023-05-07T01:47:59.986Z,45.65
2023-05-07T01:50:30.637Z,45.61
2023-05-07T01:53:00.857Z,45.57
2023-05-07T01:55:31.246Z,45.54
2023-05-07T01:58:01.398Z,45.50
2023-05-07T02:00:31.701Z,45.39
2023-05-07T02:03:02.223Z,45.43
2023-05-07T02:05:32.520Z,45.36
2023-05-07T02:08:02.718Z,45.37
2023-05-07T02:10:32.838Z,45.25
2023-05-07T02:13:03.246Z,45.25
2023-05-07T02:15:33.488Z,45.19
2023-05-07T02:18:08.833Z,45.13
2023-05-07T02:20:38.977Z,45.09
2023-05-07T02:23:09.284Z,45.06
2023-05-07T02:25:39.832Z,44.98
2023-05-07T02:28:10.107Z,45.01
2023-05-07T02:30:41.324Z,44.95
2023-05-07T02:33:13.077Z,44.91
2023-05-07T02:35:43.257Z,44.85
2023-05-07T02:38:13.714Z,44.79
2023-05-07T02:40:43.844Z,44.73
2023-05-07T02:43:13.971Z,44.70
2023-05-07T02:45:44.276Z,44.65
2023-05-07T02:48:14.538Z,44.63
2023-05-07T02:50:44.732Z,44.56
2023-05-07T02:53:14.942Z,44.53
2023-05-07T02:55:45.776Z,44.52
2023-05-07T02:58:15.954Z,44.51
2023-05-07T03:00:46.263Z,44.44
2023-05-07T03:03:17.135Z,44.42
2023-05-07T03:05:47.426Z,44.37
2023-05-07T03:08:17.623Z,44.32
2023-05-07T03:10:47.919Z,44.29
2023-05-07T03:13:18.502Z,44.24
2023-05-07T03:15:48.858Z,44.21
2023-05-07T03:18:19.138Z,44.19
2023-05-07T03:20:50.918Z,44.17
2023-05-07T03:23:22.520Z,44.13
2023-05-07T03:25:53.170Z,44.09
2023-05-07T03:28:23.345Z,44.06
2023-05-07T03:30:53.648Z,44.02
2023-05-07T03:33:23.794Z,43.99
2023-05-07T03:35:53.843Z,43.96
2023-05-07T03:38:23.952Z,43.91
2023-05-07T03:40:54.149Z,43.89
2023-05-07T03:43:24.198Z,43.83
2023-05-07T03:45:54.401Z,43.79
2023-05-07T03:48:24.501Z,43.76
2023-05-07T03:50:54.901Z,43.72
2023-05-07T03:53:25.129Z,43.71
2023-05-07T03:55:55.338Z,43.66
2023-05-07T03:58:25.569Z,43.64
2023-05-07T04:00:55.666Z,43.61
2023-05-07T04:03:26.140Z,43.59
2023-05-07T04:05:56.445Z,43.57
2023-05-07T04:08:26.867Z,43.53
2023-05-07T04:10:58.127Z,43.50
2023-05-07T04:13:28.298Z,43.46
2023-05-07T04:15:58.929Z,43.42
2023-05-07T04:18:29.054Z,43.42
2023-05-07T04:20:59.183Z,43.39
2023-05-07T04:23:29.328Z,43.37
2023-05-07T04:25:59.530Z,43.32
2023-05-07T04:28:29.680Z,43.28
2023-05-07T04:31:00.658Z,43.25
2023-05-07T04:33:30.708Z,43.22
2023-05-07T04:36:03.807Z,43.23
2023-05-07T04:38:34.677Z,43.18
2023-05-07T04:41:09.048Z,43.14
2023-05-07T04:43:39.241Z,43.12
2023-05-07T04:46:09.582Z,43.09
2023-05-07T04:48:39.730Z,43.08
2023-05-07T04:51:09.900Z,43.08
2023-05-07T04:53:40.797Z,43.02
2023-05-07T04:56:11.152Z,43.00
2023-05-07T04:58:41.453Z,42.97
2023-05-07T05:01:11.846Z,42.90
2023-05-07T05:03:42.397Z,42.89
2023-05-07T05:06:12.998Z,42.88
2023-05-07T05:08:43.113Z,42.83
2023-05-07T05:11:13.271Z,42.79
2023-05-07T05:13:43.511Z,42.77
2023-05-07T05:16:13.675Z,42.75
2023-05-07T05:18:43.972Z,42.70
2023-05-07T05:21:14.195Z,42.68
2023-05-07T05:23:44.383Z,42.65
2023-05-07T05:26:14.575Z,42.61
2023-05-07T05:28:44.773Z,42.59
2023-05-07T05:31:15.349Z,42.53
2023-05-07T05:33:45.788Z,42.56
2023-05-07T05:36:15.881Z,42.53
2023-05-07T05:38:46.591Z,42.51
2023-05-07T05:41:16.587Z,42.49
2023-05-07T05:43:46.802Z,42.47
2023-05-07T05:46:17.562Z,42.46
2023-05-07T05:48:47.756Z,42.48
2023-05-07T05:51:17.771Z,42.48
2023-05-07T05:53:47.939Z,42.44
2023-05-07T05:56:18.931Z,42.44
2023-05-07T05:58:49.449Z,42.43
2023-05-07T06:01:20.494Z,42.41
2023-05-07T06:03:50.760Z,42.41
2023-05-07T06:06:20.999Z,42.41
2023-05-07T06:08:51.341Z,42.41
2023-05-07T06:11:21.569Z,42.50
2023-05-07T06:13:51.669Z,42.54
2023-05-07T06:16:21.892Z,42.56
2023-05-07T06:18:52.083Z,42.52
2023-05-07T06:21:22.361Z,42.45
2023-05-07T06:23:53.408Z,42.38
2023-05-07T06:26:42.862Z,42.27
2023-05-07T06:29:13.295Z,42.15
2023-05-07T06:31:43.483Z,42.00
2023-05-07T06:34:15.522Z,41.83
2023-05-07T06:36:45.623Z,41.70
2023-05-07T06:39:15.814Z,41.63
2023-05-07T06:41:45.859Z,41.51
2023-05-07T06:44:16.176Z,41.39
2023-05-07T06:46:46.635Z,41.29
2023-05-07T06:49:17.662Z,41.12
2023-05-07T06:51:47.871Z,40.97
2023-05-07T06:54:17.975Z,40.79
2023-05-07T06:56:48.118Z,40.58
2023-05-07T06:59:18.597Z,40.38
2023-05-07T07:01:48.811Z,39.27
2023-05-07T07:04:19.114Z,38.19
2023-05-07T07:06:49.574Z,38.30
2023-05-07T07:09:21.123Z,38.50
2023-05-07T07:11:51.436Z,38.65
2023-05-07T07:14:21.543Z,38.64
2023-05-07T07:16:51.857Z,38.68
2023-05-07T07:19:22.042Z,38.57
2023-05-07T07:21:52.275Z,38.56
2023-05-07T07:24:22.675Z,38.54
2023-05-07T07:26:52.962Z,38.51
2023-05-07T07:29:23.168Z,38.64
2023-05-07T07:31:53.340Z,38.87
2023-05-07T07:34:23.605Z,39.40
2023-05-07T07:36:53.719Z,39.52
